Time;durP1;ratioP1;P1;durP2;ratioP2;P2;SDS_P1;SDS_P2;PMS_P1;PMS_P2;Temp;Humidity;BMP_temperature;BMP_pressure;BME280_temperature;BME280_humidity;BME280_pressure;Samples;Min_cycle;Max_cycle;Signal;HPM_P1;HPM_P2
2023/10/15 00:00:00;;;;;;;0.50;0.50;;;;;;;7.63;97.16;97096.91;29395;198;63004;-57
2023/10/15 00:00:31;;;;;;;0.50;0.50;;;;;;;7.60;96.65;97089.37;29395;231;63009;-56
2023/10/15 00:01:05;;;;;;;0.60;0.60;;;;;;;7.58;96.55;97091.53;29394;229;64009;-57
2023/10/15 00:01:36;;;;;;;0.60;0.60;;;;;;;7.57;96.88;97090.72;29395;202;63009;-55
2023/10/15 00:02:08;;;;;;;0.50;0.50;;;;;;;7.55;96.00;97092.06;29395;214;63004;-69
2023/10/15 00:02:47;;;;;;;0.57;0.57;;;;;;;7.54;96.25;97088.56;29395;277;63008;-57
2023/10/15 00:03:20;;;;;;;0.60;0.60;;;;;;;7.56;97.24;97089.09;29395;239;63005;-57
2023/10/15 00:03:51;;;;;;;0.50;0.50;;;;;;;7.58;97.42;97096.94;29395;265;63009;-57
2023/10/15 00:04:22;;;;;;;0.50;0.50;;;;;;;7.58;98.00;97091.53;29395;266;63005;-57
2023/10/15 00:04:54;;;;;;;0.57;0.57;;;;;;;7.56;98.05;97099.09;29395;218;63009;-70
2023/10/15 00:05:25;;;;;;;0.50;0.50;;;;;;;7.53;97.19;97096.94;29394;229;64009;-57
2023/10/15 00:05:57;;;;;;;0.50;0.50;;;;;;;7.53;97.37;97094.22;29394;222;64013;-57
2023/10/15 00:06:29;;;;;;;0.50;0.50;;;;;;;7.53;97.22;97089.63;29394;246;64009;-57
2023/10/15 00:07:05;;;;;;;0.50;0.50;;;;;;;7.51;97.11;97093.69;29395;206;63009;-57
2023/10/15 00:07:37;;;;;;;0.50;0.50;;;;;;;7.48;97.30;97096.91;29395;204;63004;-57
2023/10/15 00:08:08;;;;;;;0.50;0.50;;;;;;;7.47;97.30;97095.28;29395;212;63016;-57
2023/10/15 00:08:39;;;;;;;0.50;0.50;;;;;;;7.47;97.77;97089.87;29395;202;63004;-57
2023/10/15 00:09:13;;;;;;;0.50;0.50;;;;;;;7.50;98.34;97087.47;29395;215;63009;-56
2023/10/15 00:09:44;;;;;;;0.50;0.50;;;;;;;7.50;98.49;97087.47;29395;224;63004;-57
2023/10/15 00:10:22;;;;;;;0.50;0.50;;;;;;;7.51;98.61;97090.97;29395;198;63008;-57
2023/10/15 00:10:54;;;;;;;0.60;0.60;;;;;;;7.48;98.39;97084.22;29395;268;63005;-56
2023/10/15 00:11:25;;;;;;;0.55;0.55;;;;;;;7.45;97.58;97087.47;29394;216;64014;-56
2023/10/15 00:11:57;;;;;;;0.60;0.60;;;;;;;7.44;98.22;97091.25;29395;203;63005;-57
2023/10/15 00:12:30;;;;;;;0.50;0.50;;;;;;;7.44;98.68;97090.41;29396;359;63009;-56
2023/10/15 00:13:01;;;;;;;0.52;0.52;;;;;;;7.40;98.34;97085.56;29396;234;63005;-57
2023/10/15 00:13:33;;;;;;;0.50;0.50;;;;;;;7.39;98.33;97092.03;29396;205;63009;-57
2023/10/15 00:14:05;;;;;;;0.60;0.60;;;;;;;7.36;98.17;97089.87;29396;219;63005;-57
2023/10/15 00:14:37;;;;;;;0.50;0.50;;;;;;;7.36;98.64;97089.87;29396;187;63009;-57
2023/10/15 00:15:19;;;;;;;0.60;0.60;;;;;;;7.34;97.69;97081.22;29396;227;63004;-57
2023/10/15 00:15:51;;;;;;;0.60;0.60;;;;;;;7.32;97.85;97083.38;29396;196;63009;-57
2023/10/15 00:16:24;;;;;;;0.50;0.50;;;;;;;7.29;97.28;97086.59;29395;378;64009;-57
2023/10/15 00:16:55;;;;;;;0.60;0.60;;;;;;;7.28;97.91;97082.28;29396;221;63009;-56
2023/10/15 00:17:27;;;;;;;0.50;0.50;;;;;;;7.25;97.13;97090.13;29396;210;63004;-57
2023/10/15 00:18:01;;;;;;;0.50;0.50;;;;;;;7.24;97.71;97075.00;29396;328;63008;-57
2023/10/15 00:18:32;;;;;;;0.60;0.60;;;;;;;7.23;97.92;97078.78;29396;197;63005;-57
2023/10/15 00:19:10;;;;;;;0.50;0.50;;;;;;;7.24;98.46;97089.31;29396;259;63009;-57
2023/10/15 00:19:42;;;;;;;0.57;0.57;;;;;;;7.24;99.08;97081.22;29396;214;63005;-57
2023/10/15 00:20:18;;;;;;;0.50;0.50;;;;;;;7.25;99.33;97082.84;29396;228;63009;-56
2023/10/15 00:20:56;;;;;;;0.60;0.60;;;;;;;7.24;99.27;97086.62;29395;267;64009;-57
2023/10/15 00:21:32;;;;;;;0.50;0.50;;;;;;;7.25;99.22;97082.03;29395;202;64013;-57
2023/10/15 00:22:07;;;;;;;0.50;0.50;;;;;;;7.23;98.96;97085.00;29396;257;63005;-68
2023/10/15 00:22:38;;;;;;;0.50;0.50;;;;;;;7.24;99.26;97086.62;29396;215;63009;-57
2023/10/15 00:23:10;;;;;;;0.60;0.60;;;;;;;7.22;99.15;97083.38;29396;244;63004;-57
2023/10/15 00:23:46;;;;;;;1.73;1.67;;;;;;;7.23;99.38;97085.00;29396;217;63009;-58
2023/10/15 00:24:18;;;;;;;0.50;0.50;;;;;;;7.23;99.14;97079.59;29396;244;63004;-57
2023/10/15 00:24:50;;;;;;;0.50;0.50;;;;;;;7.25;99.87;97082.03;29396;199;63004;-58
2023/10/15 00:25:21;;;;;;;0.50;0.50;;;;;;;7.24;99.51;97085.81;29396;312;63004;-58
2023/10/15 00:25:52;;;;;;;0.60;0.60;;;;;;;7.24;99.36;97080.41;29395;270;64014;-57
2023/10/15 00:26:24;;;;;;;0.50;0.50;;;;;;;7.23;99.69;97085.00;29396;219;63005;-57
2023/10/15 00:26:55;;;;;;;0.52;0.52;;;;;;;7.22;99.53;97083.38;29396;206;63022;-57
2023/10/15 00:27:29;;;;;;;0.50;0.50;;;;;;;7.22;99.79;97087.97;29396;206;63005;-56
2023/10/15 00:28:01;;;;;;;0.60;0.60;;;;;;;7.20;100.00;97082.84;29396;215;63009;-57
2023/10/15 00:28:32;;;;;;;0.60;0.60;;;;;;;7.19;100.00;97081.22;29396;197;63005;-57
2023/10/15 00:29:07;;;;;;;0.60;0.60;;;;;;;7.18;100.00;97081.47;29396;203;63009;-56
2023/10/15 00:29:42;;;;;;;0.50;0.50;;;;;;;7.21;100.00;97087.16;29396;222;63005;-56
2023/10/15 00:30:14;;;;;;;0.50;0.50;;;;;;;7.23;100.00;97079.59;29396;209;63009;-57
2023/10/15 00:30:45;;;;;;;0.50;0.50;;;;;;;7.23;100.00;97086.88;29395;204;64009;-57
2023/10/15 00:31:20;;;;;;;0.50;0.50;;;;;;;7.20;100.00;97088.22;29395;253;64013;-56
2023/10/15 00:31:51;;;;;;;0.60;0.60;;;;;;;7.17;99.71;97085.25;29396;259;63009;-57
2023/10/15 00:32:22;;;;;;;0.60;0.60;;;;;;;7.15;99.64;97077.41;29396;221;63008;-58
2023/10/15 00:32:56;;;;;;;0.60;0.60;;;;;;;7.14;99.62;97086.59;29396;216;63004;-57
2023/10/15 00:33:27;;;;;;;0.60;0.60;;;;;;;7.14;99.58;97083.06;29396;216;63025;-57
2023/10/15 00:33:59;;;;;;;0.50;0.50;;;;;;;7.12;99.26;97083.34;29396;217;63005;-58
2023/10/15 00:34:30;;;;;;;0.60;0.60;;;;;;;7.13;99.64;97084.97;29396;210;63009;-58
2023/10/15 00:35:04;;;;;;;0.50;0.50;;;;;;;7.09;100.00;97073.06;29396;197;63005;-57
2023/10/15 00:35:44;;;;;;;0.60;0.60;;;;;;;7.15;100.00;97082.81;29396;226;63009;-57
2023/10/15 00:36:16;;;;;;;0.60;0.60;;;;;;;7.16;100.00;97089.84;29395;199;64009;-57
2023/10/15 00:36:48;;;;;;;0.70;0.70;;;;;;;7.18;100.00;97082.28;29396;198;63009;-57
2023/10/15 00:37:22;;;;;;;0.60;0.60;;;;;;;7.21;100.00;97086.34;29396;233;63005;-57
2023/10/15 00:37:56;;;;;;;0.60;0.60;;;;;;;7.21;100.00;97089.84;29395;202;64013;-56
2023/10/15 00:38:27;;;;;;;0.50;0.50;;;;;;;7.21;100.00;97087.16;29396;295;63004;-58
2023/10/15 00:38:58;;;;;;;0.50;0.50;;;;;;;7.24;100.00;97091.22;29396;228;63009;-57
2023/10/15 00:39:30;;;;;;;0.50;0.50;;;;;;;7.23;99.97;97093.09;29396;294;63004;-57
2023/10/15 00:40:04;;;;;;;0.57;0.57;;;;;;;7.24;100.00;97085.81;29396;269;63008;-57
2023/10/15 00:40:37;;;;;;;0.60;0.60;;;;;;;7.26;99.91;97086.34;29396;263;63004;-57
2023/10/15 00:41:09;;;;;;;0.50;0.50;;;;;;;7.27;100.00;97082.59;29396;197;63009;-57
2023/10/15 00:41:45;;;;;;;0.60;0.60;;;;;;;7.30;100.00;97085.53;29396;220;63005;-57
2023/10/15 00:42:18;;;;;;;0.57;0.57;;;;;;;7.34;100.00;97091.22;29396;248;63009;-57
2023/10/15 00:42:50;;;;;;;0.50;0.50;;;;;;;7.36;100.00;97084.47;29396;203;63005;-58
2023/10/15 00:43:21;;;;;;;0.60;0.60;;;;;;;7.37;100.00;97085.28;29395;208;64013;-57
2023/10/15 00:43:59;;;;;;;0.60;0.60;;;;;;;7.41;99.98;97086.38;29396;214;63005;-57
2023/10/15 00:44:30;;;;;;;0.60;0.60;;;;;;;7.44;99.36;97085.84;29396;202;63023;-58
2023/10/15 00:45:03;;;;;;;0.50;0.50;;;;;;;7.48;99.79;97080.72;29396;213;63004;-57
2023/10/15 00:45:39;;;;;;;0.60;0.60;;;;;;;7.50;99.10;97083.97;29395;236;64013;-57
2023/10/15 00:46:13;;;;;;;0.50;0.50;;;;;;;7.51;98.30;97083.69;29396;311;63004;-58
2023/10/15 00:46:45;;;;;;;0.50;0.50;;;;;;;7.52;96.68;97084.50;29396;225;63009;-57
2023/10/15 00:47:19;;;;;;;0.50;0.50;;;;;;;7.56;96.46;97082.87;29395;271;64009;-57
2023/10/15 00:48:07;;;;;;;0.60;0.60;;;;;;;7.55;92.69;97094.78;29395;206;64004;-57
2023/10/15 00:48:39;;;;;;;0.50;0.50;;;;;;;7.56;93.00;97088.28;29396;228;63005;-58
2023/10/15 00:49:14;;;;;;;0.50;0.50;;;;;;;7.59;93.46;97085.06;29395;281;64014;-57
2023/10/15 00:49:46;;;;;;;0.60;0.60;;;;;;;7.61;93.77;97081.00;29396;225;63005;-57
2023/10/15 00:50:17;;;;;;;0.50;0.50;;;;;;;7.64;93.86;97079.63;29396;210;63018;-58
2023/10/15 00:50:51;;;;;;;0.60;0.60;;;;;;;7.65;93.78;97075.84;29396;243;63005;-57
2023/10/15 00:51:24;;;;;;;0.55;0.55;;;;;;;7.65;93.66;97071.25;29396;266;63022;-57
2023/10/15 00:51:55;;;;;;;0.50;0.50;;;;;;;7.67;93.91;97076.41;29396;214;63005;-58
2023/10/15 00:52:30;;;;;;;0.50;0.50;;;;;;;7.68;94.97;97069.91;29396;261;63009;-57
2023/10/15 00:53:10;;;;;;;0.50;0.50;;;;;;;7.70;95.26;97073.16;29396;206;63004;-57
2023/10/15 00:53:54;;;;;;;0.50;0.50;;;;;;;7.71;93.54;97069.38;29396;206;63017;-57
2023/10/15 00:54:25;;;;;;;0.50;0.50;;;;;;;7.72;93.96;97068.31;29395;235;64009;-56
2023/10/15 00:54:57;;;;;;;0.50;0.50;;;;;;;7.71;93.28;97064.78;29396;280;63009;-68
2023/10/15 00:55:29;;;;;;;0.50;0.50;;;;;;;7.72;93.68;97066.41;29396;203;63004;-57
2023/10/15 00:56:04;;;;;;;0.50;0.50;;;;;;;7.67;94.40;97052.91;29396;197;63014;-57
2023/10/15 00:56:35;;;;;;;0.50;0.50;;;;;;;7.73;94.60;97061.81;29397;242;63005;-57
2023/10/15 00:57:41;;;;;;;0.50;0.50;;;;;;;7.75;95.15;97062.34;29397;248;63009;-57
2023/10/15 00:58:21;;;;;;;0.50;0.50;;;;;;;7.76;94.96;97061.28;29397;230;63005;-58
2023/10/15 00:59:48;;;;;;;0.50;0.50;;;;;;;7.73;93.80;97070.72;29378;282;126009;-69
2023/10/15 01:00:48;;;;;;;0.50;0.50;;;;;;;7.74;93.80;97063.44;29376;206;63004;-57
2023/10/15 01:01:26;;;;;;;0.50;0.50;;;;;;;7.75;94.57;97059.66;29397;209;63000;-70
2023/10/15 01:02:03;;;;;;;0.50;0.50;;;;;;;7.74;94.99;97058.84;29396;235;64008;-58
2023/10/15 01:02:43;;;;;;;0.50;0.50;;;;;;;7.76;94.95;97063.97;29397;222;63004;-58
2023/10/15 01:03:17;;;;;;;0.60;0.60;;;;;;;7.76;95.41;97063.16;29419;204;63008;-57
2023/10/15 01:03:54;;;;;;;0.50;0.50;;;;;;;7.76;94.32;97061.28;29397;239;63005;-57
2023/10/15 01:04:30;;;;;;;0.50;0.50;;;;;;;7.76;94.26;97063.97;29396;289;64009;-57
2023/10/15 01:05:03;;;;;;;0.60;0.60;;;;;;;7.79;94.91;97058.03;29397;226;63005;-57
2023/10/15 01:05:38;;;;;;;0.50;0.50;;;;;;;7.79;95.38;97054.53;29397;206;63009;-56
2023/10/15 01:06:13;;;;;;;0.50;0.50;;;;;;;7.81;95.78;97061.28;29397;207;63005;-57
2023/10/15 01:06:49;;;;;;;0.50;0.50;;;;;;;7.81;96.20;97058.59;29397;211;63009;-69
2023/10/15 01:08:16;;;;;;;0.50;0.50;;;;;;;7.81;93.76;97058.59;29397;242;63022;-56
2023/10/15 01:08:51;;;;;;;0.50;0.50;;;;;;;7.80;93.65;97056.16;29397;282;63004;-57
2023/10/15 01:09:29;;;;;;;0.50;0.50;;;;;;;7.79;93.69;97060.75;29396;238;63999;-56
2023/10/15 01:10:00;;;;;;;0.50;0.50;;;;;;;7.83;95.04;97055.59;29397;322;63018;-57
2023/10/15 01:10:36;;;;;;;0.50;0.50;;;;;;;7.82;95.29;97049.41;29395;211;64009;-57
2023/10/15 01:11:18;;;;;;;0.60;0.60;;;;;;;7.83;96.08;97056.41;29397;290;63005;-57
2023/10/15 01:11:58;;;;;;;0.60;0.60;;;;;;;7.83;95.26;97051.00;29417;323;64009;-58
2023/10/15 01:12:32;;;;;;;0.50;0.50;;;;;;;7.84;95.77;97057.22;29419;222;63005;-57
2023/10/15 01:13:16;;;;;;;0.50;0.50;;;;;;;7.84;95.28;97055.34;29396;204;63009;-57
2023/10/15 01:13:47;;;;;;;0.50;0.50;;;;;;;7.85;95.65;97048.03;29396;225;63005;-69
2023/10/15 01:14:31;;;;;;;0.50;0.50;;;;;;;7.85;95.07;97053.44;29396;219;63009;-57
2023/10/15 01:15:06;;;;;;;0.50;0.50;;;;;;;7.83;93.92;97051.00;29396;274;63004;-57
2023/10/15 01:15:43;;;;;;;0.50;0.50;;;;;;;7.84;92.52;97047.22;29395;204;64009;-56
2023/10/15 01:16:18;;;;;;;0.60;0.60;;;;;;;7.85;92.83;97054.25;29396;255;63004;-58
2023/10/15 01:16:50;;;;;;;0.55;0.55;;;;;;;7.86;93.73;97050.47;29396;266;63008;-58
2023/10/15 01:17:23;;;;;;;0.50;0.50;;;;;;;7.87;94.24;97046.69;29396;215;63004;-58
2023/10/15 01:18:01;;;;;;;0.60;0.60;;;;;;;7.86;94.42;97047.78;29396;202;63009;-57
2023/10/15 01:18:32;;;;;;;0.60;0.60;;;;;;;7.85;94.88;97056.16;29396;255;63005;-57
2023/10/15 01:19:15;;;;;;;0.60;0.60;;;;;;;7.86;95.20;97055.06;29396;304;63016;-57
2023/10/15 01:19:47;;;;;;;0.50;0.50;;;;;;;7.85;94.70;97054.25;29396;198;63005;-58
2023/10/15 01:20:24;;;;;;;0.60;0.60;;;;;;;7.86;94.53;97055.88;29395;196;64009;-57
2023/10/15 01:21:00;;;;;;;0.50;0.50;;;;;;;7.88;94.60;97053.72;29396;227;63005;-58
2023/10/15 01:21:32;;;;;;;0.50;0.50;;;;;;;7.90;95.25;97062.38;29396;221;63025;-58
2023/10/15 01:22:07;;;;;;;0.50;0.50;;;;;;;7.91;95.46;97053.19;29396;202;63004;-58
2023/10/15 01:22:39;;;;;;;0.50;0.50;;;;;;;7.93;95.95;97056.41;29396;215;63009;-57
2023/10/15 01:24:05;;;;;;;0.50;0.50;;;;;;;7.93;96.39;97051.03;29396;206;63009;-57
2023/10/15 01:24:38;;;;;;;0.50;0.50;;;;;;;7.93;95.96;97050.22;29396;277;63004;-58
2023/10/15 01:25:24;;;;;;;0.60;0.60;;;;;;;7.94;96.27;97052.63;29396;246;63008;-57
2023/10/15 01:26:00;;;;;;;0.50;0.50;;;;;;;7.94;95.44;97052.63;29395;226;64005;-57
2023/10/15 01:26:39;;;;;;;0.52;0.52;;;;;;;7.94;94.31;97055.34;29396;262;63009;-57
2023/10/15 01:27:14;;;;;;;0.55;0.55;;;;;;;7.92;93.17;97054.81;29396;223;63005;-57
2023/10/15 01:27:45;;;;;;;0.50;0.50;;;;;;;7.90;91.22;97053.44;29396;214;63009;-57
2023/10/15 01:28:17;;;;;;;0.60;0.60;;;;;;;7.90;91.97;97046.16;29396;199;63007;-57
2023/10/15 01:28:48;;;;;;;0.50;0.50;;;;;;;7.91;92.56;97053.19;29396;221;63009;-58
2023/10/15 01:29:23;;;;;;;0.52;0.52;;;;;;;7.93;92.61;97052.91;29396;226;63005;-57
2023/10/15 01:29:58;;;;;;;0.50;0.50;;;;;;;7.93;91.82;97053.72;29396;211;63009;-57
2023/10/15 01:30:35;;;;;;;0.50;0.50;;;;;;;7.92;90.27;97054.81;29396;218;63004;-57
2023/10/15 01:31:07;;;;;;;0.50;0.50;;;;;;;7.92;90.04;97052.09;29395;213;64009;-57
2023/10/15 01:31:49;;;;;;;0.50;0.50;;;;;;;7.93;90.98;97050.22;29396;264;63004;-58
2023/10/15 01:32:22;;;;;;;0.50;0.50;;;;;;;7.99;92.35;97052.59;29395;273;64008;-57
2023/10/15 01:32:54;;;;;;;0.50;0.50;;;;;;;8.00;92.85;97051.53;29396;214;63005;-57
2023/10/15 01:33:28;;;;;;;0.50;0.50;;;;;;;8.01;91.95;97052.34;29396;206;63009;-57
2023/10/15 01:34:01;;;;;;;0.50;0.50;;;;;;;8.01;91.16;97058.56;29396;279;63005;-57
2023/10/15 01:34:37;;;;;;;0.60;0.60;;;;;;;7.99;89.31;97052.59;29396;225;63009;-57
2023/10/15 01:35:10;;;;;;;0.50;0.50;;;;;;;7.99;90.25;97055.31;29396;293;63005;-57
2023/10/15 01:35:44;;;;;;;0.60;0.60;;;;;;;8.02;91.24;97057.47;29395;237;64009;-57
2023/10/15 01:36:21;;;;;;;0.50;0.50;;;;;;;8.04;92.13;97052.59;29396;202;63005;-57
2023/10/15 01:36:59;;;;;;;0.50;0.50;;;;;;;8.04;92.73;97049.91;29396;211;63009;-57
2023/10/15 01:37:30;;;;;;;0.60;0.60;;;;;;;8.06;92.79;97055.84;29396;196;63018;-56
2023/10/15 01:38:21;;;;;;;0.50;0.50;;;;;;;8.07;93.45;97056.66;29396;240;64009;-57
2023/10/15 01:39:09;;;;;;;0.60;0.60;;;;;;;8.05;94.02;97051.53;29418;271;63004;-57
2023/10/15 01:39:45;;;;;;;0.50;0.50;;;;;;;8.05;94.09;97054.22;29396;315;63008;-57
2023/10/15 01:40:36;;;;;;;0.50;0.50;;;;;;;8.06;94.26;97055.84;29396;198;63005;-58
2023/10/15 01:41:13;;;;;;;0.50;0.50;;;;;;;8.07;94.53;97057.47;29396;219;63009;-57
2023/10/15 01:41:49;;;;;;;0.50;0.50;;;;;;;8.05;94.73;97054.22;29396;282;63008;-57
2023/10/15 01:43:20;;;;;;;0.50;0.50;;;;;;;8.04;95.56;97059.91;29395;200;64005;-70
2023/10/15 01:43:53;;;;;;;0.40;0.40;;;;;;;8.04;94.91;97059.91;29396;202;63009;-58
2023/10/15 01:44:25;;;;;;;0.50;0.50;;;;;;;8.02;94.99;97054.75;29396;249;63018;-57
2023/10/15 01:45:15;;;;;;;0.50;0.50;;;;;;;8.00;94.57;97056.94;29396;285;63025;-57
2023/10/15 01:45:47;;;;;;;0.50;0.50;;;;;;;7.99;94.02;97060.72;29395;209;63996;-57
2023/10/15 01:47:18;;;;;;;0.50;0.50;;;;;;;8.01;93.16;97061.25;29396;220;63004;-57
2023/10/15 01:48:35;;;;;;;0.60;0.60;;;;;;;8.00;93.10;97056.12;29396;220;63005;-57
2023/10/15 01:49:09;;;;;;;0.50;0.50;;;;;;;8.01;93.85;97058.56;29396;204;63027;-57
2023/10/15 01:49:41;;;;;;;0.50;0.50;;;;;;;8.03;93.77;97056.38;29396;217;63005;-57
2023/10/15 01:50:15;;;;;;;0.52;0.52;;;;;;;8.03;93.70;97058.28;29396;203;63009;-57
2023/10/15 01:50:49;;;;;;;0.60;0.60;;;;;;;8.03;94.52;97060.97;29396;337;63005;-57
2023/10/15 01:51:22;;;;;;;0.50;0.50;;;;;;;8.04;93.33;97063.41;29395;224;64009;-57
2023/10/15 01:51:55;;;;;;;0.50;0.50;;;;;;;8.03;93.44;97055.56;29396;205;63005;-57
2023/10/15 01:52:32;;;;;;;0.50;0.50;;;;;;;8.02;93.66;97070.97;29396;203;63009;-57
2023/10/15 01:53:04;;;;;;;0.50;0.50;;;;;;;8.03;93.71;97066.37;29396;330;63004;-57
2023/10/15 01:53:39;;;;;;;0.50;0.50;;;;;;;8.01;92.52;97063.94;29396;306;63014;-57
2023/10/15 01:54:12;;;;;;;0.50;0.50;;;;;;;8.00;92.74;97061.53;29396;208;63004;-57
2023/10/15 01:54:45;;;;;;;0.60;0.60;;;;;;;8.00;93.29;97067.75;29396;271;63008;-57
2023/10/15 01:55:18;;;;;;;0.50;0.50;;;;;;;8.00;93.39;97062.34;29396;218;63004;-57
2023/10/15 01:56:00;;;;;;;0.60;0.60;;;;;;;8.00;92.42;97066.94;29396;207;63009;-57
2023/10/15 01:56:36;;;;;;;0.60;0.60;;;;;;;7.97;91.25;97065.56;29395;234;64005;-57
2023/10/15 01:57:09;;;;;;;0.50;0.50;;;;;;;7.96;91.64;97066.69;29396;219;63009;-57
2023/10/15 01:57:43;;;;;;;0.60;0.60;;;;;;;7.98;92.12;97060.97;29396;203;63005;-57
2023/10/15 01:58:16;;;;;;;0.50;0.50;;;;;;;7.96;92.07;97061.28;29397;372;63009;-57
2023/10/15 01:58:47;;;;;;;0.50;0.50;;;;;;;7.97;92.86;97062.09;29397;255;63004;-58
2023/10/15 01:59:19;;;;;;;0.60;0.60;;;;;;;7.99;92.91;97063.41;29397;202;63009;-57
2023/10/15 01:59:56;;;;;;;0.50;0.50;;;;;;;7.97;92.64;97067.50;29397;231;63015;-57
2023/10/15 02:00:34;;;;;;;0.50;0.50;;;;;;;7.99;92.99;97062.59;29397;210;63009;-57
2023/10/15 02:01:31;;;;;;;0.60;0.60;;;;;;;7.98;92.44;97058.28;29397;209;63004;-56
2023/10/15 02:02:02;;;;;;;0.50;0.50;;;;;;;7.96;92.26;97063.19;29394;226;64008;-57
2023/10/15 02:02:35;;;;;;;0.50;0.50;;;;;;;7.95;92.90;97059.66;29395;370;63004;-57
2023/10/15 02:03:10;;;;;;;0.50;0.50;;;;;;;7.96;92.19;97065.87;29395;226;63005;-56
2023/10/15 02:03:42;;;;;;;0.50;0.50;;;;;;;7.95;92.72;97059.66;29394;299;64005;-59
2023/10/15 02:04:33;;;;;;;0.50;0.50;;;;;;;7.96;92.61;97058.59;29395;237;63005;-57
2023/10/15 02:05:16;;;;;;;0.60;0.60;;;;;;;7.95;92.45;97062.38;29417;223;63005;-57
2023/10/15 02:05:48;;;;;;;0.50;0.50;;;;;;;7.96;92.95;97061.28;29395;218;63009;-57
2023/10/15 02:06:19;;;;;;;0.50;0.50;;;;;;;7.97;93.12;97057.47;29395;196;63004;-57
2023/10/15 02:06:51;;;;;;;0.50;0.50;;;;;;;7.96;92.94;97055.88;29395;271;63009;-58
2023/10/15 02:07:23;;;;;;;0.50;0.50;;;;;;;7.95;93.34;97059.66;29395;210;63020;-57
2023/10/15 02:07:56;;;;;;;0.50;0.50;;;;;;;7.96;93.77;97058.59;29395;202;63009;-57
2023/10/15 02:08:27;;;;;;;0.50;0.50;;;;;;;7.94;93.47;97058.03;29395;273;63014;-57
2023/10/15 02:08:59;;;;;;;0.50;0.50;;;;;;;7.93;92.75;97056.41;29393;205;64008;-57
2023/10/15 02:09:38;;;;;;;0.50;0.50;;;;;;;7.91;92.82;97055.88;29395;237;63011;-57
2023/10/15 02:10:13;;;;;;;0.50;0.50;;;;;;;7.91;92.71;97057.78;29395;266;63009;-57
2023/10/15 02:10:47;;;;;;;0.50;0.50;;;;;;;7.91;93.57;97050.47;29395;203;63014;-57
2023/10/15 02:11:21;;;;;;;0.60;0.60;;;;;;;7.92;93.74;97054.81;29395;210;63009;-57
2023/10/15 02:11:54;;;;;;;0.50;0.50;;;;;;;7.93;94.33;97058.31;29395;229;63005;-57
2023/10/15 02:12:25;;;;;;;0.50;0.50;;;;;;;7.95;94.87;97050.75;29395;241;63009;-58
2023/10/15 02:13:05;;;;;;;0.50;0.50;;;;;;;7.96;94.95;97055.88;29394;247;64005;-57
2023/10/15 02:13:40;;;;;;;0.50;0.50;;;;;;;7.98;94.96;97051.00;29395;325;63009;-56
2023/10/15 02:14:18;;;;;;;0.50;0.50;;;;;;;7.98;95.14;97053.69;29393;202;64004;-57
2023/10/15 02:14:51;;;;;;;0.50;0.50;;;;;;;7.99;94.88;97058.00;29393;229;64009;-57
2023/10/15 02:15:22;;;;;;;0.50;0.50;;;;;;;8.00;94.68;97056.12;29395;209;63004;-57
2023/10/15 02:15:55;;;;;;;0.50;0.50;;;;;;;7.98;94.44;97047.47;29395;320;63004;-57
2023/10/15 02:16:29;;;;;;;0.60;0.60;;;;;;;8.00;95.21;97054.22;29395;373;63004;-57
2023/10/15 02:17:05;;;;;;;0.50;0.50;;;;;;;8.00;94.16;97056.94;29395;240;63008;-58
2023/10/15 02:17:36;;;;;;;0.50;0.50;;;;;;;7.99;94.52;97055.31;29395;213;63005;-57
2023/10/15 02:18:13;;;;;;;0.50;0.50;;;;;;;8.02;94.66;97049.38;29395;219;63009;-57
2023/10/15 02:18:51;;;;;;;0.52;0.52;;;;;;;8.03;95.06;97045.56;29393;274;64005;-68
2023/10/15 02:19:40;;;;;;;0.50;0.50;;;;;;;8.05;95.68;97048.81;29395;234;63009;-57
2023/10/15 02:20:12;;;;;;;0.60;0.60;;;;;;;8.05;94.28;97042.59;29395;207;63005;-57
2023/10/15 02:20:46;;;;;;;0.50;0.50;;;;;;;8.04;93.78;97049.09;29393;220;64009;-56
2023/10/15 02:21:19;;;;;;;0.50;0.50;;;;;;;8.04;94.34;97041.78;29395;207;63005;-57
2023/10/15 02:21:51;;;;;;;0.50;0.50;;;;;;;8.05;94.00;97048.81;29395;206;63009;-57
2023/10/15 02:22:22;;;;;;;0.50;0.50;;;;;;;8.04;93.70;97047.19;29395;202;63004;-57
2023/10/15 02:22:54;;;;;;;0.50;0.50;;;;;;;8.03;92.38;97044.78;29395;209;63009;-57
2023/10/15 02:23:26;;;;;;;0.50;0.50;;;;;;;8.02;91.52;97052.06;29395;198;63004;-57
2023/10/15 02:24:07;;;;;;;0.52;0.52;;;;;;;8.02;92.14;97043.97;29395;205;63008;-57
2023/10/15 02:24:47;;;;;;;0.60;0.60;;;;;;;8.02;92.34;97038.56;29417;222;63004;-57
2023/10/15 02:25:26;;;;;;;0.50;0.50;;;;;;;8.05;92.88;97039.91;29415;234;64009;-57
2023/10/15 02:26:00;;;;;;;0.60;0.60;;;;;;;8.08;93.41;97037.47;29395;222;63005;-57
2023/10/15 02:26:31;;;;;;;0.50;0.50;;;;;;;8.03;89.55;97033.97;29395;241;63009;-57
2023/10/15 02:27:05;;;;;;;0.50;0.50;;;;;;;8.03;90.37;97029.37;29395;209;63005;-57
2023/10/15 02:27:36;;;;;;;0.60;0.60;;;;;;;8.06;91.00;97036.94;29395;306;63009;-57
2023/10/15 02:28:10;;;;;;;0.50;0.50;;;;;;;8.07;91.61;97035.84;29393;213;64005;-59
2023/10/15 02:28:47;;;;;;;0.50;0.50;;;;;;;8.08;90.56;97037.47;29395;240;63016;-57
2023/10/15 02:29:36;;;;;;;0.50;0.50;;;;;;;8.08;91.26;97025.84;29395;245;63004;-57
2023/10/15 02:30:08;;;;;;;0.50;0.50;;;;;;;8.07;91.27;97029.63;29396;214;63009;-69
2023/10/15 02:30:40;;;;;;;0.60;0.60;;;;;;;8.06;90.92;97025.31;29395;222;63004;-57
2023/10/15 02:31:14;;;;;;;0.50;0.50;;;;;;;8.07;91.20;97029.63;29395;213;63009;-57
2023/10/15 02:31:46;;;;;;;0.50;0.50;;;;;;;8.04;91.22;97030.19;29393;206;64004;-57
2023/10/15 02:32:28;;;;;;;0.50;0.50;;;;;;;8.04;91.60;97031.00;29395;219;63009;-57
2023/10/15 02:33:01;;;;;;;0.50;0.50;;;;;;;8.03;91.55;97029.37;29395;249;63005;-57
2023/10/15 02:33:33;;;;;;;0.50;0.50;;;;;;;8.04;91.93;97030.19;29395;224;63009;-57
2023/10/15 02:34:06;;;;;;;0.50;0.50;;;;;;;8.06;91.86;97030.72;29395;216;63005;-58
2023/10/15 02:34:42;;;;;;;0.60;0.60;;;;;;;8.05;91.85;97027.19;29395;222;63009;-58
2023/10/15 02:35:13;;;;;;;0.50;0.50;;;;;;;8.04;90.27;97033.69;29395;310;63005;-57
2023/10/15 02:35:47;;;;;;;0.50;0.50;;;;;;;8.05;91.37;97027.19;29395;222;63009;-57
2023/10/15 02:36:23;;;;;;;0.50;0.50;;;;;;;8.04;91.70;97025.59;29395;226;63005;-57
2023/10/15 02:37:01;;;;;;;0.50;0.50;;;;;;;8.03;91.47;97029.37;29394;251;64009;-57
2023/10/15 02:37:33;;;;;;;0.50;0.50;;;;;;;8.03;91.83;97029.37;29395;244;63015;-57
2023/10/15 02:38:10;;;;;;;0.50;0.50;;;;;;;8.05;92.52;97031.78;29395;252;63009;-57
2023/10/15 02:39:44;;;;;;;0.60;0.60;;;;;;;8.07;92.23;97030.44;29394;245;64008;-57
2023/10/15 02:40:18;;;;;;;0.60;0.60;;;;;;;8.07;92.38;97035.84;29395;202;63005;-57
2023/10/15 02:41:52;;;;;;;0.50;0.50;;;;;;;8.06;92.24;97034.22;29395;326;63005;-56
2023/10/15 02:42:35;;;;;;;0.60;0.60;;;;;;;8.06;92.73;97034.22;29395;373;63009;-56
2023/10/15 02:43:06;;;;;;;0.50;0.50;;;;;;;8.06;92.27;97036.13;29394;208;64005;-58
2023/10/15 02:43:46;;;;;;;0.50;0.50;;;;;;;8.06;92.43;97034.22;29395;240;63009;-57
2023/10/15 02:44:17;;;;;;;0.50;0.50;;;;;;;8.07;92.80;97041.25;29395;217;63004;-57
2023/10/15 02:44:51;;;;;;;0.50;0.50;;;;;;;8.08;93.12;97029.37;29395;217;63017;-57
2023/10/15 02:45:24;;;;;;;0.50;0.50;;;;;;;8.08;91.44;97036.66;29395;223;63004;-57
2023/10/15 02:46:00;;;;;;;0.50;0.50;;;;;;;8.10;92.22;97033.69;29395;235;63009;-57
2023/10/15 02:47:31;;;;;;;0.50;0.50;;;;;;;8.11;92.85;97032.59;29395;224;63009;-57
2023/10/15 02:48:10;;;;;;;0.50;0.50;;;;;;;8.11;92.56;97038.00;29395;218;63005;-56
2023/10/15 02:48:41;;;;;;;0.50;0.50;;;;;;;8.11;92.11;97035.31;29394;208;64009;-56
2023/10/15 02:49:17;;;;;;;0.50;0.50;;;;;;;8.12;92.73;97036.94;29395;293;63005;-57
2023/10/15 02:49:59;;;;;;;0.50;0.50;;;;;;;8.11;92.07;97036.13;29395;199;63009;-57
2023/10/15 02:50:33;;;;;;;0.60;0.60;;;;;;;8.10;91.86;97034.50;29395;202;63005;-57
2023/10/15 02:51:08;;;;;;;0.60;0.60;;;;;;;8.10;92.23;97029.09;29395;276;63009;-57
2023/10/15 02:51:39;;;;;;;0.60;0.60;;;;;;;8.10;92.36;97033.69;29395;220;63016;-57
2023/10/15 02:52:18;;;;;;;0.50;0.50;;;;;;;8.13;93.12;97043.94;29395;214;63009;-57
2023/10/15 02:52:49;;;;;;;0.50;0.50;;;;;;;8.14;93.32;97030.16;29395;273;63004;-57
2023/10/15 02:53:23;;;;;;;0.50;0.50;;;;;;;8.10;91.03;97037.19;29395;221;63008;-57
2023/10/15 02:54:03;;;;;;;0.57;0.57;;;;;;;8.07;91.19;97038.56;29394;234;64004;-57
2023/10/15 02:54:37;;;;;;;0.50;0.50;;;;;;;8.04;91.97;97036.37;29395;210;63008;-57
2023/10/15 02:55:10;;;;;;;0.50;0.50;;;;;;;8.06;92.75;97034.22;29395;274;63005;-57
2023/10/15 02:55:47;;;;;;;0.50;0.50;;;;;;;8.06;93.12;97038.81;29395;199;63009;-57